createdAt,value
2022-12-18T00:00:29.827Z,61.65
2022-12-18T00:01:34.941Z,61.77
2022-12-18T00:02:37.461Z,61.69
2022-12-18T00:03:42.486Z,61.66
2022-12-18T00:04:45.031Z,61.73
2022-12-18T00:05:51.658Z,61.78
2022-12-18T00:06:54.987Z,61.77
2022-12-18T00:07:59.740Z,61.78
2022-12-18T00:09:04.398Z,61.83
2022-12-18T00:10:07.343Z,61.93
2022-12-18T00:11:12.688Z,61.98
2022-12-18T00:13:18.144Z,61.74
2022-12-18T00:14:20.390Z,61.79
2022-12-18T00:15:26.230Z,61.87
2022-12-18T00:16:29.940Z,61.74
2022-12-18T00:17:33.427Z,61.81
2022-12-18T00:18:36.204Z,61.84
2022-12-18T00:19:38.569Z,61.82
2022-12-18T00:20:41.211Z,61.82
2022-12-18T00:21:44.921Z,62.00
2022-12-18T00:22:47.217Z,61.87
2022-12-18T00:23:51.066Z,62.05
2022-12-18T00:24:53.285Z,61.98
2022-12-18T00:25:55.797Z,61.97
2022-12-18T00:26:57.997Z,61.86
2022-12-18T00:28:00.307Z,61.80
2022-12-18T00:29:07.021Z,61.74
2022-12-18T00:30:09.957Z,61.61
2022-12-18T00:31:19.063Z,61.60
2022-12-18T00:32:21.375Z,61.61
2022-12-18T00:33:23.598Z,61.51
2022-12-18T00:34:25.856Z,61.45
2022-12-18T00:35:28.304Z,61.56
2022-12-18T00:36:34.417Z,61.60
2022-12-18T00:37:39.186Z,61.54
2022-12-18T00:38:45.022Z,61.66
2022-12-18T00:39:49.193Z,61.57
2022-12-18T00:40:51.508Z,61.51
2022-12-18T00:42:12.183Z,61.54
2022-12-18T00:43:17.951Z,61.60
2022-12-18T00:44:20.839Z,61.85
2022-12-18T00:45:34.991Z,61.81
2022-12-18T00:46:38.978Z,61.89
2022-12-18T00:47:47.803Z,62.01
2022-12-18T00:48:50.067Z,61.77
2022-12-18T00:49:52.318Z,61.81
2022-12-18T00:50:54.580Z,61.87
2022-12-18T00:51:56.806Z,61.79
2022-12-18T00:52:59.042Z,61.67
2022-12-18T00:54:01.281Z,61.87
2022-12-18T00:55:06.388Z,61.77
2022-12-18T00:56:08.991Z,61.75
2022-12-18T00:57:11.299Z,61.61
2022-12-18T00:58:15.547Z,61.85
2022-12-18T00:59:18.985Z,61.86
2022-12-18T01:00:21.451Z,61.88
2022-12-18T01:01:26.172Z,61.97
2022-12-18T01:02:28.630Z,62.04
2022-12-18T01:03:39.529Z,62.06
2022-12-18T01:04:43.247Z,62.08
2022-12-18T01:05:45.563Z,61.99
2022-12-18T01:06:47.876Z,62.06
2022-12-18T01:07:50.163Z,62.21
2022-12-18T01:08:52.386Z,62.15
2022-12-18T01:09:54.621Z,62.33
2022-12-18T01:10:56.810Z,62.44
2022-12-18T01:11:59.130Z,62.33
2022-12-18T01:13:01.474Z,62.56
2022-12-18T01:14:07.426Z,62.58
2022-12-18T01:15:12.371Z,62.65
2022-12-18T01:16:16.817Z,62.68
2022-12-18T01:17:21.375Z,62.72
2022-12-18T01:18:26.605Z,62.83
2022-12-18T01:19:28.947Z,62.80
2022-12-18T01:20:31.177Z,62.71
2022-12-18T01:21:33.831Z,62.75
2022-12-18T01:22:39.589Z,62.92
2022-12-18T01:23:43.357Z,62.88
2022-12-18T01:24:45.591Z,62.85
2022-12-18T01:25:47.906Z,62.82
2022-12-18T01:26:50.184Z,62.86
2022-12-18T01:27:52.687Z,63.08
2022-12-18T01:28:55.913Z,63.05
2022-12-18T01:29:59.102Z,62.98
2022-12-18T01:31:17.259Z,62.96
2022-12-18T01:32:20.736Z,62.84
2022-12-18T01:33:22.902Z,62.81
2022-12-18T01:34:28.386Z,62.82
2022-12-18T01:35:32.862Z,62.81
2022-12-18T01:36:37.518Z,62.65
2022-12-18T01:37:39.753Z,62.72
2022-12-18T01:38:42.256Z,62.67
2022-12-18T01:39:44.479Z,62.84
2022-12-18T01:40:46.775Z,62.93
2022-12-18T01:42:07.122Z,63.01
2022-12-18T01:43:17.756Z,62.90
2022-12-18T01:44:50.882Z,63.18
2022-12-18T01:45:53.242Z,63.10
2022-12-18T01:46:55.929Z,63.42
2022-12-18T01:48:04.337Z,63.41
2022-12-18T01:49:09.640Z,63.67
2022-12-18T01:50:20.104Z,63.81
2022-12-18T01:51:22.746Z,63.90
2022-12-18T01:52:27.167Z,63.98
2022-12-18T01:53:30.499Z,64.07
2022-12-18T01:54:42.318Z,64.56
2022-12-18T01:56:53.420Z,64.86
2022-12-18T01:57:59.929Z,65.11
2022-12-18T01:59:09.156Z,65.27
2022-12-18T02:00:17.765Z,65.28
2022-12-18T02:01:24.020Z,65.37
2022-12-18T02:02:30.597Z,65.36
2022-12-18T02:03:33.556Z,65.32
2022-12-18T02:04:36.287Z,65.38
2022-12-18T02:05:48.195Z,65.19
2022-12-18T02:07:02.605Z,65.41
2022-12-18T02:08:19.842Z,65.26
2022-12-18T02:09:31.345Z,65.27
2022-12-18T02:10:47.040Z,65.14
2022-12-18T02:12:13.053Z,64.93
2022-12-18T02:13:15.971Z,65.19
2022-12-18T02:14:23.306Z,65.14
2022-12-18T02:15:37.589Z,65.28
2022-12-18T02:16:51.850Z,65.10
2022-12-18T02:18:22.190Z,65.20
2022-12-18T02:19:28.218Z,65.13
2022-12-18T02:20:40.054Z,65.21
2022-12-18T02:21:56.440Z,65.07
2022-12-18T02:23:33.095Z,65.05
2022-12-18T02:24:46.053Z,65.13
2022-12-18T02:26:09.671Z,65.00
2022-12-18T02:27:13.979Z,64.98
2022-12-18T02:28:24.419Z,64.97
2022-12-18T02:31:20.552Z,65.02
2022-12-18T02:32:28.093Z,64.99
2022-12-18T02:33:33.211Z,64.98
2022-12-18T02:34:39.261Z,65.14
2022-12-18T02:35:45.922Z,65.05
2022-12-18T02:36:51.011Z,65.13
2022-12-18T02:37:55.340Z,65.07
2022-12-18T02:39:00.091Z,64.80
2022-12-18T02:40:05.306Z,64.94
2022-12-18T02:41:14.218Z,64.93
2022-12-18T02:42:18.686Z,64.86
2022-12-18T02:43:21.041Z,65.03
2022-12-18T02:44:23.459Z,64.88
2022-12-18T02:45:25.983Z,64.68
2022-12-18T02:46:31.665Z,64.81
2022-12-18T02:47:40.270Z,64.96
2022-12-18T02:48:43.254Z,64.87
2022-12-18T02:49:56.304Z,64.74
2022-12-18T02:51:24.295Z,64.63
2022-12-18T02:52:55.356Z,64.69
2022-12-18T02:54:07.271Z,64.64
2022-12-18T02:55:15.441Z,64.66
2022-12-18T02:56:27.388Z,64.69
2022-12-18T02:57:43.692Z,64.68
2022-12-18T02:59:07.543Z,64.64
2022-12-18T03:00:29.512Z,64.57
2022-12-18T03:01:40.903Z,64.56
2022-12-18T03:02:52.988Z,64.50
2022-12-18T03:04:22.364Z,64.58
2022-12-18T03:05:34.681Z,64.52
2022-12-18T03:06:50.943Z,64.59
2022-12-18T03:07:59.151Z,64.65
2022-12-18T03:09:10.682Z,64.56
2022-12-18T03:10:18.019Z,64.36
2022-12-18T03:11:41.065Z,64.43
2022-12-18T03:12:54.202Z,64.43
2022-12-18T03:14:02.278Z,64.33
2022-12-18T03:15:17.227Z,64.28
2022-12-18T03:16:32.385Z,64.23
2022-12-18T03:17:36.133Z,64.17
2022-12-18T03:18:55.984Z,64.21
2022-12-18T03:20:06.950Z,64.44
2022-12-18T03:21:12.064Z,64.23
2022-12-18T03:22:17.443Z,64.26
2022-12-18T03:23:28.885Z,64.13
2022-12-18T03:24:33.647Z,64.16
2022-12-18T03:25:40.833Z,64.21
2022-12-18T03:26:47.406Z,64.27
2022-12-18T03:28:00.593Z,64.33
2022-12-18T03:29:11.071Z,64.39
2022-12-18T03:31:46.098Z,64.40
2022-12-18T03:33:06.509Z,64.51
2022-12-18T03:34:19.241Z,64.43
2022-12-18T03:35:28.023Z,64.50
2022-12-18T03:36:30.644Z,64.73
2022-12-18T03:37:33.906Z,64.69
2022-12-18T03:38:39.121Z,64.88
2022-12-18T03:39:42.921Z,64.73
2022-12-18T03:41:06.946Z,64.87
2022-12-18T03:42:18.870Z,64.87
2022-12-18T03:44:02.402Z,64.94
2022-12-18T03:45:10.727Z,64.99
2022-12-18T03:46:48.726Z,64.94
2022-12-18T03:48:03.155Z,65.04
2022-12-18T03:49:15.787Z,64.90
2022-12-18T03:50:27.496Z,64.91
2022-12-18T03:51:53.743Z,64.85
2022-12-18T03:53:07.235Z,64.92
2022-12-18T03:54:11.208Z,64.97
2022-12-18T03:55:20.811Z,65.05
2022-12-18T03:56:34.211Z,65.13
2022-12-18T03:57:38.136Z,65.04
2022-12-18T03:58:43.366Z,65.15
2022-12-18T04:00:01.649Z,65.23
2022-12-18T04:01:19.143Z,65.15
2022-12-18T04:02:24.907Z,65.23
2022-12-18T04:03:29.669Z,65.26
2022-12-18T04:04:34.456Z,65.20
2022-12-18T04:05:40.016Z,65.31
2022-12-18T04:06:44.732Z,65.39
2022-12-18T04:07:53.409Z,65.44
2022-12-18T04:08:59.770Z,65.52
2022-12-18T04:10:04.507Z,65.27
2022-12-18T04:11:07.975Z,65.43
2022-12-18T04:12:12.823Z,65.41
2022-12-18T04:13:23.638Z,65.59
2022-12-18T04:14:26.115Z,65.41
2022-12-18T04:15:35.735Z,65.40
2022-12-18T04:16:38.835Z,65.45
2022-12-18T04:17:49.791Z,65.62
2022-12-18T04:18:55.440Z,65.49
2022-12-18T04:20:00.010Z,65.67
2022-12-18T04:21:05.842Z,65.61
2022-12-18T04:22:11.439Z,65.59
2022-12-18T04:23:18.844Z,65.52
2022-12-18T04:24:21.492Z,65.52
2022-12-18T04:25:37.915Z,65.51
2022-12-18T04:26:43.569Z,65.33
2022-12-18T04:27:50.723Z,65.28
2022-12-18T04:28:53.613Z,65.11
2022-12-18T04:29:56.630Z,65.08
2022-12-18T04:30:59.011Z,65.01
2022-12-18T04:32:01.581Z,64.84
2022-12-18T04:33:10.735Z,64.78
2022-12-18T04:34:13.689Z,64.81
2022-12-18T04:35:23.462Z,64.75
2022-12-18T04:36:27.320Z,64.74
2022-12-18T04:37:30.682Z,64.75
2022-12-18T04:38:49.347Z,64.72
2022-12-18T04:39:53.040Z,64.56
2022-12-18T04:41:05.561Z,64.58
2022-12-18T04:42:07.996Z,64.65
2022-12-18T04:43:11.253Z,64.66
2022-12-18T04:44:16.228Z,64.59
2022-12-18T04:45:19.774Z,64.55
2022-12-18T04:46:22.248Z,64.51
2022-12-18T04:47:25.794Z,64.46
2022-12-18T04:48:30.109Z,64.53
2022-12-18T04:49:32.772Z,64.33
2022-12-18T04:50:35.218Z,64.45
2022-12-18T04:51:47.053Z,64.37
2022-12-18T04:52:50.033Z,64.36
2022-12-18T04:53:52.419Z,64.37
2022-12-18T04:54:57.758Z,64.33
2022-12-18T04:56:05.188Z,64.27
2022-12-18T04:57:12.409Z,64.16
2022-12-18T04:58:25.974Z,64.17
2022-12-18T04:59:32.739Z,64.17
2022-12-18T05:00:35.093Z,64.16
2022-12-18T05:01:37.521Z,64.05
2022-12-18T05:02:40.149Z,64.11
2022-12-18T05:03:43.223Z,63.98
2022-12-18T05:04:46.002Z,64.07
2022-12-18T05:05:51.962Z,64.10
2022-12-18T05:06:54.278Z,63.88
2022-12-18T05:07:56.483Z,64.03
2022-12-18T05:08:59.145Z,63.79
2022-12-18T05:10:02.123Z,63.67
2022-12-18T05:11:12.706Z,63.82
2022-12-18T05:12:15.401Z,63.68
2022-12-18T05:13:17.710Z,63.81
2022-12-18T05:14:21.145Z,63.69
2022-12-18T05:15:23.667Z,63.55
2022-12-18T05:17:57.982Z,63.66
2022-12-18T05:19:00.762Z,63.63
2022-12-18T05:20:03.183Z,63.64
2022-12-18T05:21:05.909Z,63.45
2022-12-18T05:22:08.352Z,63.53
2022-12-18T05:23:10.985Z,63.35
2022-12-18T05:24:13.492Z,63.34
2022-12-18T05:25:19.200Z,63.23
2022-12-18T05:26:21.629Z,63.33
2022-12-18T05:27:24.083Z,63.42
2022-12-18T05:28:28.157Z,63.39
2022-12-18T05:29:30.522Z,63.25
2022-12-18T05:30:33.580Z,63.30
2022-12-18T05:31:39.520Z,63.31
2022-12-18T05:32:47.029Z,63.44
2022-12-18T05:33:49.866Z,63.45
2022-12-18T05:34:52.274Z,63.35
2022-12-18T05:35:56.778Z,63.31
2022-12-18T05:37:01.877Z,63.17
2022-12-18T05:38:16.419Z,63.20
2022-12-18T05:39:25.449Z,63.14
2022-12-18T05:40:27.809Z,63.19
2022-12-18T05:41:30.737Z,63.10
2022-12-18T05:42:33.082Z,63.28
2022-12-18T05:43:38.145Z,63.03
2022-12-18T05:44:40.719Z,63.24
2022-12-18T05:45:43.283Z,63.04
2022-12-18T05:46:47.910Z,63.12
2022-12-18T05:47:50.201Z,63.26
2022-12-18T05:48:55.217Z,63.16
2022-12-18T05:49:57.570Z,63.12
2022-12-18T05:51:07.169Z,63.16
2022-12-18T05:52:10.380Z,63.22
2022-12-18T05:53:13.738Z,63.06
2022-12-18T05:54:16.088Z,63.07
2022-12-18T05:55:20.415Z,62.97
2022-12-18T05:57:37.263Z,63.12
2022-12-18T05:58:43.002Z,63.00
2022-12-18T05:59:45.556Z,63.15
2022-12-18T06:00:47.903Z,63.19
2022-12-18T06:01:50.285Z,63.09
2022-12-18T06:02:52.912Z,63.15
2022-12-18T06:03:56.515Z,63.10
2022-12-18T06:04:58.861Z,63.07
2022-12-18T06:06:04.232Z,63.06
2022-12-18T06:07:06.672Z,63.21
2022-12-18T06:08:09.860Z,63.11
2022-12-18T06:09:12.973Z,63.05
2022-12-18T06:10:15.214Z,63.17
2022-12-18T06:11:21.318Z,63.10
2022-12-18T06:12:25.680Z,63.07
2022-12-18T06:13:30.033Z,63.07
2022-12-18T06:14:32.465Z,63.11
2022-12-18T06:15:37.896Z,63.06
2022-12-18T06:16:40.246Z,63.05
2022-12-18T06:17:42.644Z,63.00
2022-12-18T06:18:48.073Z,62.97
2022-12-18T06:19:50.423Z,63.14
2022-12-18T06:20:59.790Z,62.88
2022-12-18T06:22:02.521Z,63.08
2022-12-18T06:23:07.362Z,62.93
2022-12-18T06:24:17.009Z,62.96
2022-12-18T06:25:19.442Z,63.05
2022-12-18T06:26:27.613Z,62.85
2022-12-18T06:27:30.507Z,62.99
2022-12-18T06:28:32.974Z,62.94
2022-12-18T06:29:35.405Z,62.96
2022-12-18T06:30:37.751Z,62.84
2022-12-18T06:31:40.249Z,62.87
2022-12-18T06:32:45.606Z,62.84
2022-12-18T06:33:51.032Z,62.84
2022-12-18T06:34:54.333Z,62.75
2022-12-18T06:36:05.928Z,62.79
2022-12-18T06:37:08.283Z,62.79
2022-12-18T06:38:13.287Z,62.88
2022-12-18T06:39:18.671Z,62.68
2022-12-18T06:40:23.462Z,62.84
2022-12-18T06:41:26.813Z,62.81
2022-12-18T06:42:30.068Z,62.72
2022-12-18T06:43:32.623Z,62.77
2022-12-18T06:44:35.045Z,62.70
2022-12-18T06:45:37.452Z,62.76
2022-12-18T06:46:39.865Z,62.66
2022-12-18T06:47:42.183Z,62.62
2022-12-18T06:48:48.124Z,62.58
2022-12-18T06:49:50.494Z,62.63
2022-12-18T06:50:52.882Z,62.69
2022-12-18T06:51:55.255Z,62.71
2022-12-18T06:52:57.547Z,62.79
2022-12-18T06:54:03.016Z,62.81
2022-12-18T06:55:05.887Z,62.74
2022-12-18T06:56:10.729Z,62.95
2022-12-18T06:57:13.476Z,62.90
2022-12-18T06:58:18.813Z,62.91
2022-12-18T06:59:21.148Z,62.89
2022-12-18T07:00:23.581Z,62.93
2022-12-18T07:01:25.957Z,62.84
2022-12-18T07:02:28.432Z,63.00
2022-12-18T07:03:30.951Z,62.97
2022-12-18T07:04:33.364Z,62.91
2022-12-18T07:05:35.767Z,63.00
2022-12-18T07:06:38.254Z,63.00
2022-12-18T07:07:40.654Z,63.05
2022-12-18T07:08:43.277Z,62.90
2022-12-18T07:09:45.741Z,63.00
2022-12-18T07:10:55.767Z,63.03
2022-12-18T07:11:58.615Z,62.96
2022-12-18T07:13:01.645Z,63.08
2022-12-18T07:14:03.906Z,63.10
2022-12-18T07:15:06.940Z,63.23
2022-12-18T07:16:24.383Z,63.19
2022-12-18T07:17:30.555Z,63.02
2022-12-18T07:18:32.915Z,63.23
2022-12-18T07:19:35.488Z,63.15
2022-12-18T07:20:38.036Z,63.13
2022-12-18T07:21:40.397Z,63.09
2022-12-18T07:22:42.710Z,63.29
2022-12-18T07:23:49.478Z,63.25
2022-12-18T07:24:51.885Z,63.07
2022-12-18T07:25:54.197Z,63.09
2022-12-18T07:26:56.617Z,63.06
2022-12-18T07:27:59.198Z,63.04
2022-12-18T07:29:03.850Z,62.86
2022-12-18T07:30:07.613Z,62.92
2022-12-18T07:31:17.537Z,62.88
2022-12-18T07:32:29.062Z,62.76
2022-12-18T07:33:32.083Z,62.70
2022-12-18T07:34:44.905Z,62.86
2022-12-18T07:35:47.666Z,62.70
2022-12-18T07:37:06.760Z,62.68
2022-12-18T07:38:09.193Z,62.77
2022-12-18T07:39:14.580Z,62.76
2022-12-18T07:40:17.204Z,62.73
2022-12-18T07:41:20.514Z,62.84
2022-12-18T07:42:31.664Z,62.86
2022-12-18T07:43:35.073Z,62.90
2022-12-18T07:44:39.077Z,62.69
2022-12-18T07:45:41.662Z,62.80
2022-12-18T07:46:43.969Z,62.91
2022-12-18T07:47:46.449Z,62.90
2022-12-18T07:48:50.040Z,62.86
2022-12-18T07:49:52.976Z,62.88
2022-12-18T07:50:58.923Z,62.88
2022-12-18T07:52:02.830Z,63.06
2022-12-18T07:53:06.456Z,63.05
2022-12-18T07:54:11.783Z,63.05
2022-12-18T07:55:14.374Z,63.02
2022-12-18T07:56:31.896Z,63.15
2022-12-18T07:57:49.967Z,63.06
2022-12-18T07:58:55.734Z,63.07
2022-12-18T07:59:58.164Z,63.27
2022-12-18T08:01:08.012Z,63.32
2022-12-18T08:02:10.924Z,63.24
2022-12-18T08:03:14.885Z,63.23
2022-12-18T08:04:17.348Z,63.26
2022-12-18T08:05:20.265Z,63.32
2022-12-18T08:06:24.934Z,63.34
2022-12-18T08:07:27.649Z,63.30
2022-12-18T08:08:31.046Z,63.50
2022-12-18T08:09:34.122Z,63.58
2022-12-18T08:10:36.745Z,63.60
2022-12-18T08:11:39.038Z,63.65
2022-12-18T08:12:41.495Z,63.61
2022-12-18T08:13:43.825Z,63.72
2022-12-18T08:14:46.187Z,63.70
2022-12-18T08:15:57.100Z,63.87
2022-12-18T08:16:59.791Z,63.91
2022-12-18T08:18:02.745Z,63.98
2022-12-18T08:19:05.717Z,64.20
2022-12-18T08:20:09.150Z,64.35
2022-12-18T08:21:24.091Z,64.84
2022-12-18T08:22:26.989Z,64.94
2022-12-18T08:23:29.275Z,65.29
2022-12-18T08:24:31.938Z,65.64
2022-12-18T08:25:35.198Z,65.55
2022-12-18T08:26:37.978Z,65.96
2022-12-18T08:27:40.502Z,66.56
2022-12-18T08:28:43.626Z,67.18
2022-12-18T08:29:45.983Z,67.74
2022-12-18T08:30:53.283Z,67.83
2022-12-18T08:31:55.673Z,67.84
2022-12-18T08:32:58.008Z,67.97
2022-12-18T08:34:00.287Z,68.06
2022-12-18T08:35:02.633Z,68.20
2022-12-18T08:36:05.975Z,68.34
2022-12-18T08:37:08.243Z,68.65
2022-12-18T08:38:10.538Z,68.31
2022-12-18T08:39:15.827Z,68.86
2022-12-18T08:40:18.167Z,68.65
2022-12-18T08:41:20.779Z,69.03
2022-12-18T08:42:41.707Z,69.31
2022-12-18T08:44:03.657Z,69.59
2022-12-18T08:45:09.221Z,69.19
2022-12-18T08:46:12.101Z,68.97
2022-12-18T08:47:18.055Z,69.25
2022-12-18T08:48:22.323Z,69.69
2022-12-18T08:49:24.859Z,70.39
2022-12-18T08:50:28.076Z,70.28
2022-12-18T08:51:32.877Z,70.38
2022-12-18T08:52:35.434Z,69.96
2022-12-18T08:53:39.058Z,69.80
2022-12-18T08:54:41.553Z,69.86
2022-12-18T08:55:48.652Z,69.67
2022-12-18T08:56:52.942Z,69.58
2022-12-18T08:57:55.177Z,69.18
2022-12-18T08:58:57.675Z,69.47
2022-12-18T09:00:00.183Z,69.61
2022-12-18T09:01:06.617Z,69.47
2022-12-18T09:02:11.887Z,68.91
2022-12-18T09:03:15.893Z,68.38
2022-12-18T09:04:18.575Z,68.13
2022-12-18T09:05:20.876Z,68.14
2022-12-18T09:06:24.291Z,67.74
2022-12-18T09:07:26.811Z,67.53
2022-12-18T09:08:29.458Z,67.35
2022-12-18T09:09:31.739Z,66.87
2022-12-18T09:10:37.657Z,66.48
2022-12-18T09:11:44.078Z,66.05
2022-12-18T09:12:46.624Z,66.12
2022-12-18T09:13:51.317Z,66.13
2022-12-18T09:14:53.616Z,66.07
2022-12-18T09:15:56.764Z,65.63
2022-12-18T09:17:01.471Z,65.65
2022-12-18T09:19:27.783Z,65.22
2022-12-18T09:20:30.985Z,65.07
2022-12-18T09:21:37.016Z,64.65
2022-12-18T09:22:39.663Z,64.07
2022-12-18T09:23:42.282Z,63.29
2022-12-18T09:24:44.854Z,63.14
2022-12-18T09:25:49.492Z,62.91
2022-12-18T09:26:57.892Z,62.83
2022-12-18T09:28:01.857Z,62.39
2022-12-18T09:29:05.705Z,61.85
2022-12-18T09:30:08.721Z,61.71
2022-12-18T09:31:16.758Z,61.12
2022-12-18T09:32:22.507Z,60.40
2022-12-18T09:33:25.214Z,60.11
2022-12-18T09:34:27.581Z,59.86
2022-12-18T09:35:29.925Z,59.29
2022-12-18T09:36:33.068Z,59.13
2022-12-18T09:37:35.494Z,58.80
2022-12-18T09:38:38.147Z,58.79
2022-12-18T09:39:40.735Z,58.44
2022-12-18T09:40:46.216Z,58.17
2022-12-18T09:41:54.749Z,57.84
2022-12-18T09:43:01.839Z,57.60
2022-12-18T09:44:29.988Z,57.30
2022-12-18T09:45:53.622Z,57.03
2022-12-18T09:47:05.086Z,56.55
2022-12-18T09:48:14.242Z,56.13
2022-12-18T09:49:21.518Z,56.15
2022-12-18T09:50:38.334Z,55.86
2022-12-18T09:51:51.045Z,55.78
2022-12-18T09:52:58.021Z,55.66
2022-12-18T09:54:08.299Z,55.45
2022-12-18T09:55:10.883Z,55.33
2022-12-18T09:56:23.999Z,54.89
2022-12-18T09:57:26.826Z,55.02
2022-12-18T09:58:41.021Z,54.76
2022-12-18T09:59:51.668Z,54.78
2022-12-18T10:00:56.362Z,54.52
2022-12-18T10:02:04.583Z,54.51
2022-12-18T10:03:15.368Z,54.44
2022-12-18T10:04:19.879Z,54.39
2022-12-18T10:07:31.145Z,54.32
2022-12-18T10:08:59.865Z,54.24
2022-12-18T10:10:25.575Z,53.97
2022-12-18T10:11:49.959Z,54.13
2022-12-18T10:15:38.256Z,54.31
2022-12-18T10:17:25.321Z,54.26
2022-12-18T10:19:05.360Z,54.62
2022-12-18T10:20:33.692Z,55.13
2022-12-18T10:22:07.326Z,54.95
2022-12-18T10:23:15.010Z,54.85
2022-12-18T10:24:43.592Z,54.53
2022-12-18T10:26:00.316Z,54.40
2022-12-18T10:27:15.047Z,54.26
2022-12-18T10:32:27.362Z,54.22
2022-12-18T10:35:43.493Z,53.94
2022-12-18T10:38:24.642Z,54.08
2022-12-18T10:39:29.641Z,54.26
2022-12-18T10:40:32.027Z,54.11
2022-12-18T10:41:34.591Z,53.97
2022-12-18T10:42:36.973Z,53.91
2022-12-18T10:43:40.622Z,53.98
2022-12-18T10:44:42.884Z,53.92
2022-12-18T10:46:18.940Z,53.91
2022-12-18T10:47:21.559Z,54.10
2022-12-18T10:48:25.221Z,54.06
2022-12-18T10:49:30.188Z,54.07
2022-12-18T10:51:09.760Z,54.02
2022-12-18T10:52:19.851Z,54.18
2022-12-18T10:53:28.753Z,54.03
2022-12-18T10:54:34.094Z,54.11
2022-12-18T10:55:39.773Z,54.13
2022-12-18T10:56:43.710Z,54.08
2022-12-18T10:57:46.702Z,54.22
2022-12-18T10:59:05.673Z,54.11
2022-12-18T11:00:28.812Z,53.91
2022-12-18T11:01:57.112Z,53.92
2022-12-18T11:02:59.753Z,54.05
2022-12-18T11:04:08.718Z,53.64
2022-12-18T11:05:32.837Z,53.43
2022-12-18T11:06:35.378Z,53.33
2022-12-18T11:07:52.021Z,53.24
2022-12-18T11:09:08.021Z,53.01
2022-12-18T11:10:20.663Z,53.14
2022-12-18T11:11:24.385Z,53.27
2022-12-18T11:12:29.784Z,52.69
2022-12-18T11:13:33.113Z,53.00
2022-12-18T11:14:52.096Z,52.87
2022-12-18T11:15:55.019Z,52.65
2022-12-18T11:17:25.025Z,52.89
2022-12-18T11:18:34.768Z,52.87
2022-12-18T11:19:39.874Z,53.02
2022-12-18T11:20:42.348Z,53.09
2022-12-18T11:21:44.796Z,53.08
2022-12-18T11:22:58.395Z,52.62
2022-12-18T11:24:03.492Z,52.69
2022-12-18T11:25:36.030Z,52.68
2022-12-18T11:26:40.695Z,52.98
2022-12-18T11:27:49.766Z,52.90
2022-12-18T11:29:11.653Z,52.63
2022-12-18T11:30:22.950Z,52.47
2022-12-18T11:31:29.795Z,52.75
2022-12-18T11:32:37.439Z,52.58
2022-12-18T11:33:58.666Z,52.69
2022-12-18T11:35:14.476Z,52.55
2022-12-18T11:36:18.383Z,52.64
2022-12-18T11:37:21.265Z,52.65
2022-12-18T11:38:27.225Z,52.61
2022-12-18T11:39:38.375Z,52.60
2022-12-18T11:40:46.222Z,52.33
2022-12-18T11:42:13.049Z,52.30
2022-12-18T11:43:43.452Z,52.88
2022-12-18T11:45:04.424Z,52.88
2022-12-18T11:46:17.634Z,52.66
2022-12-18T11:47:45.222Z,52.74
2022-12-18T11:48:58.394Z,52.66
2022-12-18T11:50:03.188Z,52.75
2022-12-18T11:51:11.395Z,52.67
2022-12-18T11:52:45.511Z,52.54
2022-12-18T11:53:47.789Z,52.84
2022-12-18T11:54:53.995Z,52.72
2022-12-18T11:56:06.623Z,52.85
2022-12-18T11:57:46.487Z,52.89
2022-12-18T11:58:56.671Z,52.91
2022-12-18T12:00:20.067Z,52.94
2022-12-18T12:01:44.799Z,52.98
2022-12-18T12:02:52.701Z,53.00
2022-12-18T12:04:07.493Z,53.04
2022-12-18T12:05:19.107Z,53.02
2022-12-18T12:06:40.515Z,53.05
2022-12-18T12:07:56.452Z,53.18
2022-12-18T12:08:59.533Z,53.19
2022-12-18T12:10:35.550Z,53.28
2022-12-18T12:11:55.623Z,53.38
2022-12-18T12:13:19.225Z,53.33
2022-12-18T12:14:58.068Z,53.28
2022-12-18T12:16:14.685Z,53.34
2022-12-18T12:17:34.880Z,53.40
2022-12-18T12:19:04.849Z,53.60
2022-12-18T12:20:21.511Z,53.58
2022-12-18T12:21:43.439Z,53.48
2022-12-18T12:23:06.026Z,53.65
2022-12-18T12:24:23.607Z,53.44
2022-12-18T12:25:44.488Z,53.53
2022-12-18T12:26:59.145Z,53.65
2022-12-18T12:28:13.304Z,53.57
2022-12-18T12:29:26.469Z,53.51
2022-12-18T12:30:57.477Z,53.49
2022-12-18T12:32:10.213Z,53.56
2022-12-18T12:33:35.308Z,53.85
2022-12-18T12:35:31.743Z,53.85
2022-12-18T12:36:51.780Z,53.57
2022-12-18T12:38:28.451Z,53.51
2022-12-18T12:39:35.703Z,53.53
2022-12-18T12:40:53.852Z,53.62
2022-12-18T12:42:25.616Z,53.61
2022-12-18T12:43:49.381Z,53.60
2022-12-18T12:44:58.114Z,53.75
2022-12-18T12:46:08.129Z,53.48
2022-12-18T12:47:20.110Z,53.63
2022-12-18T12:48:57.406Z,53.76
2022-12-18T12:50:03.182Z,53.68
2022-12-18T12:51:29.853Z,53.70
2022-12-18T12:52:37.942Z,53.80
2022-12-18T12:53:42.816Z,53.65
2022-12-18T12:54:48.275Z,53.65
2022-12-18T12:55:53.153Z,53.71
2022-12-18T12:57:14.903Z,53.53
2022-12-18T12:58:33.321Z,53.88
2022-12-18T12:59:43.619Z,53.75
2022-12-18T13:01:05.803Z,53.42
2022-12-18T13:02:30.223Z,53.74
2022-12-18T13:03:58.330Z,53.97
2022-12-18T13:05:47.208Z,54.12
2022-12-18T13:07:22.165Z,54.03
2022-12-18T13:08:31.642Z,53.93
2022-12-18T13:10:12.237Z,53.76
2022-12-18T13:12:00.265Z,54.05
2022-12-18T13:13:07.109Z,53.81
2022-12-18T13:14:40.698Z,53.81
2022-12-18T13:15:48.660Z,53.82
2022-12-18T13:16:51.024Z,53.88
2022-12-18T13:18:14.602Z,53.95
2022-12-18T13:19:26.720Z,54.04
2022-12-18T13:20:37.763Z,53.97
2022-12-18T13:21:43.200Z,54.01
2022-12-18T13:22:49.208Z,53.99
2022-12-18T13:23:52.236Z,54.08
2022-12-18T13:24:54.598Z,54.09
2022-12-18T13:26:18.508Z,54.20
2022-12-18T13:27:46.616Z,54.08
2022-12-18T13:28:54.286Z,54.23
2022-12-18T13:29:56.604Z,54.25
2022-12-18T13:30:59.166Z,54.21
2022-12-18T13:32:02.989Z,54.17
2022-12-18T13:33:17.687Z,54.25
2022-12-18T13:35:43.408Z,54.25
2022-12-18T13:36:46.081Z,54.22
2022-12-18T13:37:54.087Z,54.38
2022-12-18T13:39:16.441Z,54.42
2022-12-18T13:40:40.224Z,54.54
2022-12-18T13:41:43.645Z,54.52
2022-12-18T13:43:04.538Z,54.45
2022-12-18T13:44:38.534Z,54.38
2022-12-18T13:45:47.439Z,54.63
2022-12-18T13:46:51.797Z,54.62
2022-12-18T13:47:54.664Z,54.68
2022-12-18T13:49:15.119Z,54.80
2022-12-18T13:50:29.699Z,54.73
2022-12-18T13:51:36.327Z,54.79
2022-12-18T13:52:40.774Z,54.70
2022-12-18T13:53:53.076Z,54.86
2022-12-18T13:54:58.992Z,54.79
2022-12-18T13:56:02.885Z,54.86
2022-12-18T13:57:07.803Z,54.89
2022-12-18T13:58:13.204Z,55.02
2022-12-18T13:59:23.233Z,55.06
2022-12-18T14:00:31.021Z,55.18
2022-12-18T14:01:33.556Z,55.09
2022-12-18T14:02:36.085Z,55.12
2022-12-18T14:03:38.812Z,55.10
2022-12-18T14:04:41.248Z,55.23
2022-12-18T14:05:50.250Z,55.23
2022-12-18T14:06:58.726Z,55.17
2022-12-18T14:08:13.777Z,55.15
2022-12-18T14:09:26.746Z,55.26
2022-12-18T14:10:48.370Z,55.34
2022-12-18T14:11:52.990Z,55.32
2022-12-18T14:13:00.724Z,55.34
2022-12-18T14:14:09.010Z,55.48
2022-12-18T14:15:24.275Z,55.46
2022-12-18T14:16:28.309Z,55.56
2022-12-18T14:17:33.047Z,55.62
2022-12-18T14:18:47.220Z,56.54
2022-12-18T14:19:52.208Z,56.25
2022-12-18T14:21:03.026Z,56.05
2022-12-18T14:22:05.614Z,55.95
2022-12-18T14:23:27.855Z,56.09
2022-12-18T14:24:31.489Z,55.99
2022-12-18T14:25:33.886Z,55.95
2022-12-18T14:26:36.790Z,55.97
2022-12-18T14:27:47.729Z,56.08
2022-12-18T14:28:50.076Z,55.96
2022-12-18T14:29:52.815Z,56.03
2022-12-18T14:30:55.989Z,56.07
2022-12-18T14:32:18.850Z,55.98
2022-12-18T14:33:24.136Z,56.34
2022-12-18T14:34:27.923Z,56.21
2022-12-18T14:35:30.148Z,56.32
2022-12-18T14:36:32.410Z,56.27
2022-12-18T14:37:34.648Z,56.41
2022-12-18T14:38:41.205Z,56.33
2022-12-18T14:39:54.935Z,56.42
2022-12-18T14:41:06.433Z,56.63
2022-12-18T14:42:12.396Z,56.59
2022-12-18T14:43:14.845Z,56.58
2022-12-18T14:44:17.321Z,56.63
2022-12-18T14:45:43.337Z,56.79
2022-12-18T14:46:47.730Z,56.90
2022-12-18T14:47:50.041Z,57.10
2022-12-18T14:48:52.520Z,57.02
2022-12-18T14:49:54.828Z,57.02
2022-12-18T14:51:03.710Z,56.97
2022-12-18T14:52:07.891Z,57.18
2022-12-18T14:53:33.992Z,57.24
2022-12-18T14:54:38.307Z,57.14
2022-12-18T14:55:48.977Z,57.17
2022-12-18T14:57:03.034Z,57.30
2022-12-18T14:58:05.319Z,57.48
2022-12-18T14:59:23.982Z,57.46
2022-12-18T15:00:29.699Z,57.39
2022-12-18T15:01:38.468Z,57.66
2022-12-18T15:02:41.195Z,57.59
2022-12-18T15:03:45.369Z,57.50